createdAt,value
2023-05-11T00:00:12.560Z,12.20
2023-05-11T00:02:41.865Z,12.20
2023-05-11T00:05:10.813Z,12.30
2023-05-11T00:07:38.602Z,12.20
2023-05-11T00:10:07.392Z,12.20
2023-05-11T00:12:35.163Z,12.20
2023-05-11T00:15:02.984Z,12.20
2023-05-11T00:17:30.832Z,12.20
2023-05-11T00:20:00.243Z,12.20
2023-05-11T00:22:28.063Z,12.20
2023-05-11T00:24:55.828Z,12.20
2023-05-11T00:27:23.798Z,12.20
2023-05-11T00:29:51.560Z,12.30
2023-05-11T00:32:19.435Z,12.30
2023-05-11T00:34:47.201Z,12.20
2023-05-11T00:37:16.337Z,12.10
2023-05-11T00:39:44.134Z,12.20
2023-05-11T00:42:12.228Z,12.20
2023-05-11T00:44:40.252Z,12.20
2023-05-11T00:47:08.560Z,12.20
2023-05-11T00:49:36.881Z,12.20
2023-05-11T00:52:04.948Z,12.30
2023-05-11T00:54:34.615Z,12.20
2023-05-11T00:57:02.757Z,12.20
2023-05-11T00:59:31.029Z,12.20
2023-05-11T01:01:59.075Z,12.20
2023-05-11T01:04:27.412Z,12.30
2023-05-11T01:07:05.333Z,12.30
2023-05-11T01:09:45.922Z,12.20
2023-05-11T01:12:21.605Z,12.20
2023-05-11T01:14:57.282Z,12.00
2023-05-11T01:17:32.232Z,12.10
2023-05-11T01:20:05.901Z,12.10
2023-05-11T01:22:45.545Z,12.10
2023-05-11T01:25:28.666Z,12.00
2023-05-11T01:28:24.139Z,11.90
2023-05-11T01:30:55.862Z,11.90
2023-05-11T01:33:28.987Z,12.00
2023-05-11T01:36:02.071Z,12.00
2023-05-11T01:38:34.334Z,11.90
2023-05-11T01:41:09.647Z,11.80
2023-05-11T01:43:38.641Z,11.80
2023-05-11T01:46:11.293Z,11.80
2023-05-11T01:48:41.992Z,11.70
2023-05-11T01:51:10.655Z,11.70
2023-05-11T01:53:39.405Z,11.70
2023-05-11T01:56:08.305Z,11.70
2023-05-11T01:58:38.114Z,11.70
2023-05-11T02:01:08.169Z,11.70
2023-05-11T02:03:37.844Z,11.70
2023-05-11T02:06:06.798Z,11.70
2023-05-11T02:08:35.401Z,11.60
2023-05-11T02:11:04.961Z,11.70
2023-05-11T02:13:35.622Z,11.70
2023-05-11T02:16:05.438Z,11.60
2023-05-11T02:18:35.751Z,11.60
2023-05-11T02:21:04.619Z,11.60
2023-05-11T02:23:33.851Z,11.60
2023-05-11T02:26:03.513Z,11.50
2023-05-11T02:28:31.507Z,11.50
2023-05-11T02:31:03.319Z,11.50
2023-05-11T02:33:35.415Z,11.40
2023-05-11T02:36:04.378Z,11.30
2023-05-11T02:38:35.223Z,11.30
2023-05-11T02:41:07.157Z,11.40
2023-05-11T02:43:38.310Z,11.50
2023-05-11T02:46:09.559Z,11.50
2023-05-11T02:48:42.798Z,11.40
2023-05-11T02:51:13.356Z,11.40
2023-05-11T02:53:43.758Z,11.30
2023-05-11T02:56:11.666Z,11.20
2023-05-11T02:58:39.629Z,11.10
2023-05-11T03:01:08.648Z,11.00
2023-05-11T03:03:38.091Z,11.10
2023-05-11T03:06:06.435Z,11.10
2023-05-11T03:08:34.452Z,11.10
2023-05-11T03:11:03.428Z,11.20
2023-05-11T03:13:32.414Z,11.30
2023-05-11T03:16:02.757Z,11.30
2023-05-11T03:18:32.069Z,11.30
2023-05-11T03:21:02.488Z,11.20
2023-05-11T03:23:31.516Z,11.20
2023-05-11T03:26:00.465Z,11.20
2023-05-11T03:28:30.749Z,11.10
2023-05-11T03:30:58.574Z,11.20
2023-05-11T03:33:26.469Z,11.20
2023-05-11T03:35:55.013Z,11.20
2023-05-11T03:38:25.273Z,11.20
2023-05-11T03:40:54.387Z,11.10
2023-05-11T03:43:23.218Z,11.10
2023-05-11T03:45:52.986Z,11.10
2023-05-11T03:48:21.906Z,11.20
2023-05-11T03:50:50.685Z,11.20
2023-05-11T03:53:18.509Z,11.20
2023-05-11T03:55:47.684Z,11.20
2023-05-11T03:58:16.124Z,11.20
2023-05-11T04:00:44.137Z,11.20
2023-05-11T04:03:12.788Z,11.30
2023-05-11T04:05:41.438Z,11.30
2023-05-11T04:08:10.625Z,11.40
2023-05-11T04:10:39.173Z,11.40
2023-05-11T04:13:08.349Z,11.30
2023-05-11T04:15:37.549Z,11.20
2023-05-11T04:18:05.492Z,11.20
2023-05-11T04:20:33.404Z,11.10
2023-05-11T04:23:01.244Z,11.30
2023-05-11T04:25:29.013Z,11.40
2023-05-11T04:27:56.801Z,11.30
2023-05-11T04:30:26.073Z,11.30
2023-05-11T04:32:53.899Z,11.30
2023-05-11T04:35:23.553Z,11.20
2023-05-11T04:37:51.520Z,11.10
2023-05-11T04:40:19.689Z,11.00
2023-05-11T04:42:47.669Z,11.20
2023-05-11T04:45:15.521Z,11.10
2023-05-11T04:47:44.726Z,11.20
2023-05-11T04:50:12.708Z,11.30
2023-05-11T04:52:40.503Z,11.20
2023-05-11T04:55:08.942Z,11.10
2023-05-11T04:57:38.668Z,11.10
2023-05-11T05:00:08.479Z,11.10
2023-05-11T05:02:36.442Z,11.10
2023-05-11T05:05:06.168Z,11.00
2023-05-11T05:07:33.956Z,11.20
2023-05-11T05:10:01.785Z,11.20
2023-05-11T05:12:29.561Z,11.20
2023-05-11T05:14:57.344Z,11.30
2023-05-11T05:17:25.495Z,11.40
2023-05-11T05:19:53.303Z,11.40
2023-05-11T05:22:22.400Z,11.40
2023-05-11T05:24:50.217Z,11.40
2023-05-11T05:27:18.199Z,11.60
2023-05-11T05:29:46.005Z,11.50
2023-05-11T05:32:13.861Z,11.50
2023-05-11T05:34:41.716Z,11.70
2023-05-11T05:37:09.542Z,11.60
2023-05-11T05:39:38.622Z,11.70
2023-05-11T05:42:07.076Z,11.80
2023-05-11T05:44:34.924Z,11.70
2023-05-11T05:47:02.856Z,11.80
2023-05-11T05:49:30.609Z,11.80
2023-05-11T05:51:58.422Z,11.80
2023-05-11T05:54:26.197Z,11.80
2023-05-11T05:56:55.402Z,11.90
2023-05-11T05:59:24.343Z,11.70
2023-05-11T06:01:52.513Z,11.70
2023-05-11T06:04:20.431Z,11.80
2023-05-11T06:06:48.469Z,11.90
2023-05-11T06:09:16.612Z,11.80
2023-05-11T06:11:44.619Z,11.80
2023-05-11T06:14:13.713Z,11.90
2023-05-11T06:16:41.521Z,12.00
2023-05-11T06:19:09.643Z,12.00
2023-05-11T06:21:37.524Z,12.10
2023-05-11T06:24:05.995Z,12.10
2023-05-11T06:26:33.772Z,12.10
2023-05-11T06:29:01.745Z,12.10
2023-05-11T06:31:31.008Z,12.00
2023-05-11T06:33:58.811Z,12.10
2023-05-11T06:36:26.767Z,12.10
2023-05-11T06:38:54.527Z,12.10
2023-05-11T06:41:22.556Z,12.10
2023-05-11T06:43:50.353Z,12.30
2023-05-11T06:46:18.193Z,12.30
2023-05-11T06:48:47.520Z,12.30
2023-05-11T06:51:15.326Z,12.40
2023-05-11T06:53:43.104Z,12.30
2023-05-11T06:56:11.108Z,12.40
2023-05-11T06:58:38.937Z,12.40
2023-05-11T07:01:07.993Z,12.50
2023-05-11T07:03:36.193Z,12.60
2023-05-11T07:06:05.590Z,12.60
2023-05-11T07:08:33.727Z,12.60
2023-05-11T07:11:01.582Z,12.60
2023-05-11T07:13:29.451Z,12.50
2023-05-11T07:15:57.772Z,12.50
2023-05-11T07:18:25.883Z,12.60
2023-05-11T07:20:53.696Z,12.60
2023-05-11T07:23:22.823Z,12.60
2023-05-11T07:25:51.000Z,12.80
2023-05-11T07:28:18.762Z,12.80
2023-05-11T07:30:47.989Z,12.90
2023-05-11T07:33:15.857Z,13.00
2023-05-11T07:35:43.696Z,13.10
2023-05-11T07:38:12.857Z,13.20
2023-05-11T07:40:41.985Z,13.30
2023-05-11T07:43:09.865Z,13.30
2023-05-11T07:45:37.644Z,13.40
2023-05-11T07:48:05.604Z,13.50
2023-05-11T07:50:33.390Z,13.50
2023-05-11T07:53:01.220Z,13.50
2023-05-11T07:55:30.593Z,13.50
2023-05-11T07:57:59.764Z,13.50
2023-05-11T08:00:27.780Z,13.50
2023-05-11T08:02:55.638Z,13.60
2023-05-11T08:05:23.515Z,13.60
2023-05-11T08:07:51.356Z,13.70
2023-05-11T08:10:19.298Z,13.70
2023-05-11T08:12:47.123Z,13.70
2023-05-11T08:15:16.385Z,13.70
2023-05-11T08:17:46.101Z,13.70
2023-05-11T08:20:14.507Z,13.60
2023-05-11T08:22:42.388Z,13.60
2023-05-11T08:25:10.645Z,13.60
2023-05-11T08:27:38.427Z,13.70
2023-05-11T08:30:08.942Z,13.70
2023-05-11T08:35:11.301Z,13.80
2023-05-11T08:37:39.130Z,13.90
2023-05-11T08:40:08.193Z,13.90
2023-05-11T08:42:37.331Z,13.90
2023-05-11T08:45:07.972Z,14.00
2023-05-11T08:47:36.179Z,14.10
2023-05-11T08:50:06.647Z,14.10
2023-05-11T08:52:34.542Z,14.10
2023-05-11T08:55:02.344Z,14.20
2023-05-11T08:57:32.327Z,14.30
2023-05-11T09:00:03.068Z,14.30
2023-05-11T09:02:31.349Z,14.40
2023-05-11T09:05:01.673Z,14.50
2023-05-11T09:07:31.720Z,14.50
2023-05-11T09:09:59.544Z,14.50
2023-05-11T09:12:28.464Z,14.50
2023-05-11T09:15:02.031Z,14.40
2023-05-11T09:17:30.102Z,14.40
2023-05-11T09:20:02.087Z,14.40
2023-05-11T09:22:36.185Z,14.40
2023-05-11T09:25:05.346Z,14.40
2023-05-11T09:27:33.252Z,14.20
2023-05-11T09:30:12.503Z,14.20
2023-05-11T09:32:51.278Z,14.10
2023-05-11T09:35:23.832Z,14.10
2023-05-11T09:38:06.891Z,14.10
2023-05-11T09:40:36.891Z,14.20
2023-05-11T09:43:16.408Z,14.30
2023-05-11T09:45:45.778Z,14.30
2023-05-11T09:48:25.835Z,14.30
2023-05-11T09:51:00.447Z,14.30
2023-05-11T09:53:45.368Z,14.20
2023-05-11T09:56:13.965Z,14.20
2023-05-11T09:58:50.236Z,14.20
2023-05-11T10:01:19.437Z,14.20
2023-05-11T10:03:49.058Z,14.20
2023-05-11T10:06:19.370Z,14.20
2023-05-11T10:08:50.065Z,14.20
2023-05-11T10:11:18.120Z,14.20
2023-05-11T10:13:46.549Z,14.20
2023-05-11T10:16:16.982Z,14.10
2023-05-11T10:18:45.697Z,14.00
2023-05-11T10:21:15.936Z,14.20
2023-05-11T10:23:44.033Z,14.20
2023-05-11T10:26:13.880Z,14.20
2023-05-11T10:28:41.936Z,14.10
2023-05-11T10:31:10.941Z,14.00
2023-05-11T10:33:39.265Z,14.00
2023-05-11T10:36:10.051Z,13.90
2023-05-11T10:38:37.987Z,13.80
2023-05-11T10:41:21.722Z,13.80
2023-05-11T10:44:14.387Z,13.80
2023-05-11T10:46:57.845Z,13.70
2023-05-11T10:49:42.669Z,13.60
2023-05-11T10:52:31.160Z,13.70
2023-05-11T10:55:10.506Z,13.70
2023-05-11T10:57:56.387Z,13.80
2023-05-11T11:01:03.921Z,13.80
2023-05-11T11:03:31.839Z,13.80
2023-05-11T11:06:00.892Z,13.80
2023-05-11T11:08:29.803Z,13.90
2023-05-11T11:10:57.679Z,14.00
2023-05-11T11:13:26.888Z,14.10
2023-05-11T11:16:11.792Z,14.00
2023-05-11T11:18:40.658Z,13.90
2023-05-11T11:21:13.636Z,13.90
2023-05-11T11:23:50.308Z,14.00
2023-05-11T11:26:39.533Z,14.00
2023-05-11T11:29:15.308Z,14.10
2023-05-11T11:31:43.584Z,14.20
2023-05-11T11:34:33.810Z,14.30
2023-05-11T11:37:05.246Z,14.20
2023-05-11T11:39:50.995Z,14.30
2023-05-11T11:42:20.071Z,14.30
2023-05-11T11:44:49.454Z,14.40
2023-05-11T11:47:19.700Z,14.50
2023-05-11T11:49:49.361Z,14.60
2023-05-11T11:52:34.375Z,14.70
2023-05-11T11:55:03.419Z,14.90
2023-05-11T11:57:51.013Z,15.00
2023-05-11T12:00:22.768Z,15.10
2023-05-11T12:02:51.117Z,15.20
2023-05-11T12:05:22.306Z,15.40
2023-05-11T12:07:52.866Z,15.50
2023-05-11T12:10:22.574Z,15.60
2023-05-11T12:12:51.721Z,15.70
2023-05-11T12:15:28.417Z,15.90
2023-05-11T12:17:56.806Z,16.00
2023-05-11T12:20:25.842Z,16.10
2023-05-11T12:22:53.687Z,16.20
2023-05-11T12:25:22.255Z,16.30
2023-05-11T12:27:51.761Z,16.40
2023-05-11T12:30:23.925Z,16.50
2023-05-11T12:35:25.622Z,16.50
2023-05-11T12:37:53.747Z,16.50
2023-05-11T12:40:21.992Z,16.30
2023-05-11T12:42:51.978Z,16.20
2023-05-11T12:45:20.962Z,15.90
2023-05-11T12:47:49.594Z,15.60
2023-05-11T12:50:19.578Z,15.30
2023-05-11T12:52:47.958Z,15.00
2023-05-11T12:55:18.183Z,14.60
2023-05-11T12:57:46.125Z,14.30
2023-05-11T13:00:15.731Z,14.10
2023-05-11T13:02:46.086Z,14.00
2023-05-11T13:05:14.831Z,13.90
2023-05-11T13:07:45.210Z,13.80
2023-05-11T13:10:14.407Z,13.70
2023-05-11T13:12:52.228Z,13.60
2023-05-11T13:15:21.853Z,13.50
2023-05-11T13:17:56.528Z,13.50
2023-05-11T13:20:27.403Z,13.50
2023-05-11T13:23:07.082Z,13.50
2023-05-11T13:25:36.235Z,13.50
2023-05-11T13:28:04.346Z,13.60
2023-05-11T13:30:34.715Z,13.60
2023-05-11T13:33:03.188Z,13.60
2023-05-11T13:35:31.065Z,13.70
2023-05-11T13:37:59.271Z,13.60
2023-05-11T13:40:28.548Z,13.70
2023-05-11T13:42:56.747Z,13.90
2023-05-11T13:45:24.604Z,13.90
2023-05-11T13:47:52.502Z,13.80
2023-05-11T13:50:20.315Z,13.70
2023-05-11T13:52:48.208Z,14.00
2023-05-11T13:55:16.434Z,14.10
2023-05-11T13:57:45.861Z,14.00
2023-05-11T14:00:15.108Z,14.00
2023-05-11T14:02:43.121Z,13.90
2023-05-11T14:05:11.279Z,13.70
2023-05-11T14:07:47.792Z,13.60
2023-05-11T14:10:16.796Z,13.60
2023-05-11T14:12:46.356Z,13.60
2023-05-11T14:15:14.534Z,13.60
2023-05-11T14:17:43.024Z,13.60
2023-05-11T14:20:12.181Z,13.70
2023-05-11T14:22:41.433Z,13.70
2023-05-11T14:25:10.010Z,13.70
2023-05-11T14:27:38.048Z,13.70
2023-05-11T14:30:08.715Z,13.80
2023-05-11T14:32:36.621Z,13.80
2023-05-11T14:35:04.653Z,13.90
2023-05-11T14:37:32.505Z,13.90
2023-05-11T14:40:00.772Z,14.20
2023-05-11T14:42:29.441Z,14.10
2023-05-11T14:44:57.303Z,14.20
2023-05-11T14:47:26.697Z,14.20
2023-05-11T14:49:54.625Z,14.20
2023-05-11T14:52:22.427Z,14.20
2023-05-11T14:54:50.924Z,14.20
2023-05-11T14:57:18.759Z,14.20
2023-05-11T14:59:58.525Z,14.30
2023-05-11T15:02:30.395Z,14.30
2023-05-11T15:04:58.379Z,14.30
2023-05-11T15:07:26.762Z,14.30
2023-05-11T15:09:55.055Z,14.40
2023-05-11T15:12:22.904Z,14.50
2023-05-11T15:14:50.808Z,14.50
2023-05-11T15:17:18.653Z,14.60
2023-05-11T15:19:47.824Z,14.60
2023-05-11T15:22:17.255Z,14.50
2023-05-11T15:24:45.385Z,14.60
2023-05-11T15:27:13.196Z,14.60
2023-05-11T15:29:40.984Z,14.60
2023-05-11T15:32:09.299Z,14.60
2023-05-11T15:34:44.544Z,14.70
2023-05-11T15:37:20.374Z,14.70
2023-05-11T15:39:48.213Z,14.70
2023-05-11T15:42:17.315Z,14.80
2023-05-11T15:44:45.349Z,14.80
2023-05-11T15:47:13.156Z,14.80
2023-05-11T15:49:41.128Z,14.90
2023-05-11T15:52:08.938Z,14.80
2023-05-11T15:54:38.176Z,14.80
2023-05-11T15:57:06.415Z,14.80
2023-05-11T15:59:34.217Z,14.80
2023-05-11T16:02:02.023Z,14.80
2023-05-11T16:04:29.862Z,14.70
2023-05-11T16:06:58.864Z,14.70
2023-05-11T16:09:27.083Z,14.70
2023-05-11T16:11:56.391Z,14.70
2023-05-11T16:14:24.181Z,14.80
2023-05-11T16:16:52.927Z,14.80
2023-05-11T16:19:20.823Z,14.80
2023-05-11T16:21:48.606Z,14.80
2023-05-11T16:24:16.437Z,14.80
2023-05-11T16:26:44.263Z,14.90
2023-05-11T16:29:13.850Z,14.90
2023-05-11T16:31:41.688Z,14.90
2023-05-11T16:34:09.651Z,14.90
2023-05-11T16:36:37.737Z,14.90
2023-05-11T16:39:05.694Z,15.00
2023-05-11T16:41:33.505Z,15.00
2023-05-11T16:44:01.332Z,15.00
2023-05-11T16:46:31.067Z,15.00
2023-05-11T16:48:58.944Z,15.10
2023-05-11T16:51:26.753Z,15.00
2023-05-11T16:53:55.023Z,15.00
2023-05-11T16:56:22.849Z,15.00
2023-05-11T16:58:50.674Z,14.90
2023-05-11T17:01:18.654Z,14.90
2023-05-11T17:03:47.910Z,14.90
2023-05-11T17:06:20.704Z,15.00
2023-05-11T17:08:48.748Z,14.90
2023-05-11T17:11:16.579Z,14.80
2023-05-11T17:13:44.444Z,14.80
2023-05-11T17:16:12.335Z,14.80
2023-05-11T17:18:40.367Z,14.80
2023-05-11T17:21:09.745Z,14.70
2023-05-11T17:23:37.601Z,14.70
2023-05-11T17:26:10.037Z,14.60
2023-05-11T17:28:37.871Z,14.50
2023-05-11T17:31:09.858Z,14.40
2023-05-11T17:33:37.925Z,14.20
2023-05-11T17:36:06.525Z,14.20
2023-05-11T17:38:36.172Z,14.10
2023-05-11T17:41:05.799Z,14.00
2023-05-11T17:43:34.013Z,14.00
2023-05-11T17:46:03.976Z,13.90
2023-05-11T17:48:32.093Z,13.90
2023-05-11T17:51:00.228Z,13.90
2023-05-11T17:53:28.108Z,13.70
2023-05-11T17:55:59.311Z,13.60
2023-05-11T17:58:27.238Z,13.60
2023-05-11T18:00:55.073Z,13.50
2023-05-11T18:03:22.959Z,13.50
2023-05-11T18:05:50.967Z,13.30
2023-05-11T18:08:18.842Z,13.10
2023-05-11T18:10:46.664Z,13.00
2023-05-11T18:13:17.393Z,12.90
2023-05-11T18:15:45.650Z,13.00
2023-05-11T18:18:13.611Z,13.00
2023-05-11T18:20:45.219Z,13.10
2023-05-11T18:23:13.146Z,13.10
2023-05-11T18:25:41.092Z,13.10
2023-05-11T18:28:08.909Z,13.10
2023-05-11T18:30:38.038Z,13.00
2023-05-11T18:33:05.925Z,13.00
2023-05-11T18:35:35.326Z,12.90
2023-05-11T18:38:04.793Z,12.90
2023-05-11T18:40:32.830Z,12.90
2023-05-11T18:43:01.137Z,12.80
2023-05-11T18:45:30.297Z,12.80
2023-05-11T18:47:59.469Z,12.80
2023-05-11T18:50:29.568Z,12.70
2023-05-11T18:52:57.547Z,12.70
2023-05-11T18:55:25.777Z,12.70
2023-05-11T18:57:53.631Z,12.70
2023-05-11T19:00:21.698Z,12.70
2023-05-11T19:02:49.768Z,12.60
2023-05-11T19:05:19.323Z,12.50
2023-05-11T19:07:47.200Z,12.40
2023-05-11T19:10:15.055Z,12.40
2023-05-11T19:12:42.853Z,12.40
2023-05-11T19:15:11.285Z,12.40
2023-05-11T19:17:39.146Z,12.30
2023-05-11T19:20:08.412Z,12.30
2023-05-11T19:22:37.738Z,12.30
2023-05-11T19:25:07.205Z,12.20
2023-05-11T19:27:35.912Z,12.10
2023-05-11T19:30:04.553Z,12.00
2023-05-11T19:32:32.446Z,12.10
2023-05-11T19:35:00.273Z,12.00
2023-05-11T19:37:28.193Z,12.00
2023-05-11T19:40:11.171Z,12.10
2023-05-11T19:42:45.836Z,11.90
2023-05-11T19:45:15.178Z,11.80
2023-05-11T19:47:43.039Z,11.80
2023-05-11T19:50:11.183Z,11.80
2023-05-11T19:52:39.146Z,11.80
2023-05-11T19:55:09.140Z,11.90
2023-05-11T19:57:37.936Z,11.80
2023-05-11T20:00:06.838Z,11.80
2023-05-11T20:02:35.637Z,11.80
2023-05-11T20:05:04.202Z,11.80
2023-05-11T20:07:32.314Z,11.70
2023-05-11T20:10:00.231Z,11.80
2023-05-11T20:12:29.350Z,11.80
2023-05-11T20:14:57.112Z,11.80
2023-05-11T20:17:24.934Z,11.80
2023-05-11T20:19:53.017Z,11.90
2023-05-11T20:22:22.512Z,11.90
2023-05-11T20:24:50.444Z,11.90
2023-05-11T20:27:18.332Z,11.90
2023-05-11T20:29:47.426Z,11.80
2023-05-11T20:32:15.290Z,11.90
2023-05-11T20:34:43.096Z,11.90
2023-05-11T20:37:10.885Z,11.80
2023-05-11T20:39:39.788Z,11.80
2023-05-11T20:42:07.750Z,11.90
2023-05-11T20:44:35.561Z,11.80
2023-05-11T20:47:04.935Z,11.80
2023-05-11T20:49:38.774Z,11.80
2023-05-11T20:52:07.713Z,11.70
2023-05-11T20:54:36.121Z,11.70
2023-05-11T20:57:04.878Z,11.70
2023-05-11T21:02:05.364Z,11.70
2023-05-11T21:04:33.766Z,11.70
2023-05-11T21:07:01.549Z,11.70
2023-05-11T21:09:29.331Z,11.70
2023-05-11T21:11:57.080Z,11.70
2023-05-11T21:14:24.976Z,11.70
2023-05-11T21:16:52.817Z,11.70
2023-05-11T21:19:22.029Z,11.80
2023-05-11T21:21:49.810Z,11.60
2023-05-11T21:24:17.864Z,11.50
2023-05-11T21:26:48.202Z,11.60
2023-05-11T21:29:16.156Z,11.60
2023-05-11T21:31:43.978Z,11.70
2023-05-11T21:34:11.903Z,11.60
2023-05-11T21:36:41.452Z,11.40
2023-05-11T21:39:09.557Z,11.40
2023-05-11T21:41:37.411Z,11.50
2023-05-11T21:44:05.420Z,11.50
2023-05-11T21:46:33.279Z,11.20
2023-05-11T21:49:01.223Z,11.10
2023-05-11T21:51:29.062Z,11.00
2023-05-11T21:53:58.205Z,10.90
2023-05-11T21:56:26.064Z,10.90
2023-05-11T21:58:53.885Z,10.90
2023-05-11T22:01:21.733Z,10.90
2023-05-11T22:03:49.706Z,10.80
2023-05-11T22:06:17.635Z,10.70
2023-05-11T22:08:46.290Z,10.70
2023-05-11T22:11:15.468Z,10.80
2023-05-11T22:13:44.463Z,10.80
2023-05-11T22:16:12.343Z,11.00
2023-05-11T22:18:40.275Z,11.10
2023-05-11T22:21:08.074Z,11.20
2023-05-11T22:23:36.500Z,11.40
2023-05-11T22:26:04.478Z,11.30
2023-05-11T22:28:33.829Z,11.20
2023-05-11T22:31:02.157Z,11.20
2023-05-11T22:33:29.989Z,11.30
2023-05-11T22:35:57.759Z,11.20
2023-05-11T22:38:25.532Z,11.20
2023-05-11T22:40:53.300Z,11.30
2023-05-11T22:43:21.295Z,11.40
2023-05-11T22:45:50.457Z,11.50
2023-05-11T22:48:18.277Z,11.60
2023-05-11T22:50:47.535Z,11.60
2023-05-11T22:53:15.703Z,11.40
2023-05-11T22:55:43.568Z,11.40
2023-05-11T22:58:11.474Z,11.40
2023-05-11T23:00:39.424Z,11.50
2023-05-11T23:03:08.774Z,11.50
2023-05-11T23:05:37.186Z,11.50
2023-05-11T23:08:05.017Z,11.60
2023-05-11T23:10:33.071Z,11.50
2023-05-11T23:13:00.892Z,11.40
2023-05-11T23:15:28.688Z,11.30
2023-05-11T23:17:56.518Z,11.30
2023-05-11T23:20:26.098Z,11.40
2023-05-11T23:22:53.912Z,11.40
2023-05-11T23:25:21.746Z,11.40
2023-05-11T23:27:50.078Z,11.60
2023-05-11T23:30:19.000Z,11.50
2023-05-11T23:32:46.995Z,11.50
2023-05-11T23:35:14.951Z,11.50
2023-05-11T23:37:45.172Z,11.40
2023-05-11T23:40:13.236Z,11.40
2023-05-11T23:42:41.025Z,11.40
2023-05-11T23:45:09.628Z,11.30
2023-05-11T23:47:37.828Z,11.30
2023-05-11T23:50:07.391Z,11.30
2023-05-11T23:52:35.663Z,11.30
2023-05-11T23:55:06.190Z,11.30
2023-05-11T23:57:33.973Z,11.40
